sensor_id;sensor_type;location;lat;lon;timestamp;pressure;altitude;pressure_sealevel;temperature;humidity
74578;BME280;63173;49.086;33.418;2022-12-18T00:01:22;100741.03;;;2.82;91.52
74578;BME280;63173;49.086;33.418;2022-12-18T00:03:48;100757.22;;;2.75;90.93
74578;BME280;63173;49.086;33.418;2022-12-18T00:06:14;100748.44;;;2.68;91.48
74578;BME280;63173;49.086;33.418;2022-12-18T00:08:41;100755.31;;;2.64;91.62
74578;BME280;63173;49.086;33.418;2022-12-18T00:11:08;100758.03;;;2.58;90.59
74578;BME280;63173;49.086;33.418;2022-12-18T00:13:34;100778.28;;;2.54;91.08
74578;BME280;63173;49.086;33.418;2022-12-18T00:16:11;100763.03;;;2.54;91.52
74578;BME280;63173;49.086;33.418;2022-12-18T00:18:37;100763.72;;;2.68;91.51
74578;BME280;63173;49.086;33.418;2022-12-18T00:21:05;100784.06;;;2.57;90.78
74578;BME280;63173;49.086;33.418;2022-12-18T00:23:33;100781.44;;;2.51;90.52
74578;BME280;63173;49.086;33.418;2022-12-18T00:26:03;100790.09;;;2.53;90.85
74578;BME280;63173;49.086;33.418;2022-12-18T00:28:29;100782.25;;;2.51;91.36
74578;BME280;63173;49.086;33.418;2022-12-18T00:31:06;100793.00;;;2.51;91.57
74578;BME280;63173;49.086;33.418;2022-12-18T00:33:32;100797.38;;;2.46;91.95
74578;BME280;63173;49.086;33.418;2022-12-18T00:38:27;100791.25;;;2.39;91.58
74578;BME280;63173;49.086;33.418;2022-12-18T00:40:52;100794.00;;;2.32;91.18
74578;BME280;63173;49.086;33.418;2022-12-18T00:43:18;100793.56;;;2.35;90.73
74578;BME280;63173;49.086;33.418;2022-12-18T00:45:43;100802.41;;;2.36;91.09
74578;BME280;63173;49.086;33.418;2022-12-18T00:48:09;100829.97;;;2.43;91.50
74578;BME280;63173;49.086;33.418;2022-12-18T00:50:34;100836.81;;;2.39;91.56
74578;BME280;63173;49.086;33.418;2022-12-18T00:53:00;100823.78;;;2.42;91.52
74578;BME280;63173;49.086;33.418;2022-12-18T00:55:25;100829.38;;;2.41;91.90
74578;BME280;63173;49.086;33.418;2022-12-18T00:57:51;100821.44;;;2.52;91.58
74578;BME280;63173;49.086;33.418;2022-12-18T01:00:17;100821.34;;;2.41;91.13
74578;BME280;63173;49.086;33.418;2022-12-18T01:02:43;100814.50;;;2.45;90.94
74578;BME280;63173;49.086;33.418;2022-12-18T01:05:10;100822.31;;;2.46;91.63
74578;BME280;63173;49.086;33.418;2022-12-18T01:07:36;100815.31;;;2.45;91.04
74578;BME280;63173;49.086;33.418;2022-12-18T01:10:01;100829.38;;;2.41;90.80
74578;BME280;63173;49.086;33.418;2022-12-18T01:12:27;100830.25;;;2.35;91.71
74578;BME280;63173;49.086;33.418;2022-12-18T01:14:52;100827.28;;;2.43;91.59
74578;BME280;63173;49.086;33.418;2022-12-18T01:17:17;100829.38;;;2.41;92.00
74578;BME280;63173;49.086;33.418;2022-12-18T01:19:43;100832.84;;;2.48;91.51
74578;BME280;63173;49.086;33.418;2022-12-18T01:22:08;100826.91;;;2.39;91.94
74578;BME280;63173;49.086;33.418;2022-12-18T01:24:33;100836.44;;;2.35;92.43
74578;BME280;63173;49.086;33.418;2022-12-18T01:26:59;100833.53;;;2.37;92.27
74578;BME280;63173;49.086;33.418;2022-12-18T01:29:24;100840.19;;;2.34;92.70
74578;BME280;63173;49.086;33.418;2022-12-18T01:31:50;100829.22;;;2.36;92.02
74578;BME280;63173;49.086;33.418;2022-12-18T01:34:15;100834.38;;;2.37;92.87
74578;BME280;63173;49.086;33.418;2022-12-18T01:36:41;100839.13;;;2.35;92.33
74578;BME280;63173;49.086;33.418;2022-12-18T01:39:10;100843.09;;;2.33;92.66
74578;BME280;63173;49.086;33.418;2022-12-18T01:41:36;100839.88;;;2.42;91.95
74578;BME280;63173;49.086;33.418;2022-12-18T01:47:45;100850.44;;;2.37;91.69
74578;BME280;63173;49.086;33.418;2022-12-18T01:50:24;100851.91;;;2.33;92.04
74578;BME280;63173;49.086;33.418;2022-12-18T01:52:59;100855.81;;;2.37;92.77
74578;BME280;63173;49.086;33.418;2022-12-18T01:55:29;100857.13;;;2.28;92.20
74578;BME280;63173;49.086;33.418;2022-12-18T01:57:58;100858.56;;;2.31;93.15
74578;BME280;63173;49.086;33.418;2022-12-18T02:00:25;100862.50;;;2.28;92.73
74578;BME280;63173;49.086;33.418;2022-12-18T02:02:52;100864.19;;;2.23;93.47
74578;BME280;63173;49.086;33.418;2022-12-18T02:05:41;100862.03;;;2.31;93.36
74578;BME280;63173;49.086;33.418;2022-12-18T02:11:07;100868.00;;;2.33;92.90
74578;BME280;63173;49.086;33.418;2022-12-18T02:18:46;100874.94;;;2.16;92.72
74578;BME280;63173;49.086;33.418;2022-12-18T02:29:08;100879.53;;;2.09;92.82
74578;BME280;63173;49.086;33.418;2022-12-18T02:31:39;100876.25;;;2.07;92.53
74578;BME280;63173;49.086;33.418;2022-12-18T02:34:08;100877.25;;;2.13;92.54
74578;BME280;63173;49.086;33.418;2022-12-18T02:36:36;100885.72;;;2.10;92.58
74578;BME280;63173;49.086;33.418;2022-12-18T02:39:03;100889.44;;;2.09;91.98
74578;BME280;63173;49.086;33.418;2022-12-18T02:41:30;100897.69;;;2.07;92.17
74578;BME280;63173;49.086;33.418;2022-12-18T02:44:07;100898.53;;;2.08;92.18
74578;BME280;63173;49.086;33.418;2022-12-18T02:46:53;100920.81;;;2.02;92.04
74578;BME280;63173;49.086;33.418;2022-12-18T02:54:45;100910.88;;;2.09;90.59
74578;BME280;63173;49.086;33.418;2022-12-18T02:57:22;100921.25;;;1.99;90.00
74578;BME280;63173;49.086;33.418;2022-12-18T02:59:58;100921.72;;;1.89;90.57
74578;BME280;63173;49.086;33.418;2022-12-18T03:02:33;100939.59;;;1.95;90.18
74578;BME280;63173;49.086;33.418;2022-12-18T03:05:07;100939.41;;;1.97;90.08
74578;BME280;63173;49.086;33.418;2022-12-18T03:07:58;100942.28;;;1.95;90.37
74578;BME280;63173;49.086;33.418;2022-12-18T03:10:32;100958.78;;;1.92;90.90
74578;BME280;63173;49.086;33.418;2022-12-18T03:13:02;100969.56;;;1.79;90.52
74578;BME280;63173;49.086;33.418;2022-12-18T03:15:37;100949.53;;;1.88;91.01
74578;BME280;63173;49.086;33.418;2022-12-18T03:18:12;100944.56;;;1.91;90.60
74578;BME280;63173;49.086;33.418;2022-12-18T03:20:41;100950.13;;;1.97;91.13
74578;BME280;63173;49.086;33.418;2022-12-18T03:23:18;100951.59;;;1.92;91.06
74578;BME280;63173;49.086;33.418;2022-12-18T03:25:46;100950.38;;;1.88;90.93
74578;BME280;63173;49.086;33.418;2022-12-18T03:28:15;100956.34;;;1.84;90.98
74578;BME280;63173;49.086;33.418;2022-12-18T03:30:45;100958.41;;;1.82;91.69
74578;BME280;63173;49.086;33.418;2022-12-18T03:36:14;100987.50;;;1.78;91.73
74578;BME280;63173;49.086;33.418;2022-12-18T03:38:40;100995.56;;;1.65;91.31
74578;BME280;63173;49.086;33.418;2022-12-18T03:41:31;101006.94;;;1.61;91.09
74578;BME280;63173;49.086;33.418;2022-12-18T03:44:06;101005.28;;;1.60;91.28
74578;BME280;63173;49.086;33.418;2022-12-18T03:46:58;101008.59;;;1.55;90.78
74578;BME280;63173;49.086;33.418;2022-12-18T03:52:29;101029.38;;;1.60;91.18
74578;BME280;63173;49.086;33.418;2022-12-18T03:54:58;101037.41;;;1.60;91.32
74578;BME280;63173;49.086;33.418;2022-12-18T03:57:28;101037.22;;;1.55;91.53
74578;BME280;63173;49.086;33.418;2022-12-18T03:59:58;101035.59;;;1.47;91.42
74578;BME280;63173;49.086;33.418;2022-12-18T04:02:25;101032.88;;;1.54;91.07
74578;BME280;63173;49.086;33.418;2022-12-18T04:04:57;101027.31;;;1.55;90.93
74578;BME280;63173;49.086;33.418;2022-12-18T04:07:25;101019.94;;;1.44;91.37
74578;BME280;63173;49.086;33.418;2022-12-18T04:09:53;101032.94;;;1.47;91.52
74578;BME280;63173;49.086;33.418;2022-12-18T04:12:21;101034.16;;;1.38;90.88
74578;BME280;63173;49.086;33.418;2022-12-18T04:14:48;101043.84;;;1.33;90.36
74578;BME280;63173;49.086;33.418;2022-12-18T04:17:14;101037.06;;;1.30;90.18
74578;BME280;63173;49.086;33.418;2022-12-18T04:19:39;101048.38;;;1.26;89.93
74578;BME280;63173;49.086;33.418;2022-12-18T04:22:05;101041.19;;;1.26;90.27
74578;BME280;63173;49.086;33.418;2022-12-18T04:24:30;101054.97;;;1.23;89.64
74578;BME280;63173;49.086;33.418;2022-12-18T04:26:55;101057.47;;;1.18;89.45
74578;BME280;63173;49.086;33.418;2022-12-18T04:29:21;101074.34;;;1.19;89.39
74578;BME280;63173;49.086;33.418;2022-12-18T04:31:46;101066.94;;;1.08;89.54
74578;BME280;63173;49.086;33.418;2022-12-18T04:34:12;101065.69;;;1.17;89.78
74578;BME280;63173;49.086;33.418;2022-12-18T04:36:37;101078.66;;;1.20;90.03
74578;BME280;63173;49.086;33.418;2022-12-18T04:39:02;101100.06;;;1.07;89.31
74578;BME280;63173;49.086;33.418;2022-12-18T04:41:28;101104.00;;;1.04;89.54
74578;BME280;63173;49.086;33.418;2022-12-18T04:43:53;101086.06;;;1.05;89.63
74578;BME280;63173;49.086;33.418;2022-12-18T04:46:19;101113.25;;;1.02;89.27
74578;BME280;63173;49.086;33.418;2022-12-18T04:48:45;101101.72;;;1.01;89.92
74578;BME280;63173;49.086;33.418;2022-12-18T04:51:12;101112.00;;;1.04;89.29
74578;BME280;63173;49.086;33.418;2022-12-18T04:53:37;101104.41;;;1.08;89.25
74578;BME280;63173;49.086;33.418;2022-12-18T04:56:13;101111.78;;;0.99;89.19
74578;BME280;63173;49.086;33.418;2022-12-18T04:58:41;101092.22;;;0.98;89.35
74578;BME280;63173;49.086;33.418;2022-12-18T05:01:07;101109.13;;;0.92;89.27
74578;BME280;63173;49.086;33.418;2022-12-18T05:03:34;101108.91;;;0.94;89.50
74578;BME280;63173;49.086;33.418;2022-12-18T05:06:00;101106.84;;;1.03;89.29
74578;BME280;63173;49.086;33.418;2022-12-18T05:08:26;101104.81;;;0.98;89.38
74578;BME280;63173;49.086;33.418;2022-12-18T05:11:05;101113.03;;;0.97;89.50
74578;BME280;63173;49.086;33.418;2022-12-18T05:13:31;101127.00;;;0.85;89.43
74578;BME280;63173;49.086;33.418;2022-12-18T05:15:57;101125.97;;;0.86;89.49
74578;BME280;63173;49.086;33.418;2022-12-18T05:18:23;101123.09;;;0.88;89.28
74578;BME280;63173;49.086;33.418;2022-12-18T05:20:50;101131.09;;;0.81;89.45
74578;BME280;63173;49.086;33.418;2022-12-18T05:23:16;101147.59;;;0.85;89.16
74578;BME280;63173;49.086;33.418;2022-12-18T05:25:41;101147.59;;;0.85;89.01
74578;BME280;63173;49.086;33.418;2022-12-18T05:28:07;101151.47;;;0.82;89.21
74578;BME280;63173;49.086;33.418;2022-12-18T05:30:32;101149.41;;;0.91;89.04
74578;BME280;63173;49.086;33.418;2022-12-18T05:32:57;101163.19;;;0.81;88.87
74578;BME280;63173;49.086;33.418;2022-12-18T05:35:23;101162.16;;;0.82;88.88
74578;BME280;63173;49.086;33.418;2022-12-18T05:37:48;101170.81;;;0.84;88.38
74578;BME280;63173;49.086;33.418;2022-12-18T05:40:14;101184.81;;;0.86;88.65
74578;BME280;63173;49.086;33.418;2022-12-18T05:42:39;101178.00;;;0.84;88.07
74578;BME280;63173;49.086;33.418;2022-12-18T05:45:05;101202.69;;;0.79;87.89
74578;BME280;63173;49.086;33.418;2022-12-18T05:47:31;101185.16;;;0.70;88.08
74578;BME280;63173;49.086;33.418;2022-12-18T05:49:56;101193.81;;;0.72;88.12
74578;BME280;63173;49.086;33.418;2022-12-18T05:52:22;101215.44;;;0.77;88.21
74578;BME280;63173;49.086;33.418;2022-12-18T05:54:48;101217.66;;;0.67;88.30
74578;BME280;63173;49.086;33.418;2022-12-18T05:57:13;101215.19;;;0.66;88.74
74578;BME280;63173;49.086;33.418;2022-12-18T05:59:39;101213.16;;;0.74;89.12
74578;BME280;63173;49.086;33.418;2022-12-18T06:02:04;101222.19;;;0.67;88.53
74578;BME280;63173;49.086;33.418;2022-12-18T06:04:30;101231.50;;;0.77;88.14
74578;BME280;63173;49.086;33.418;2022-12-18T06:06:56;101238.63;;;0.70;88.42
74578;BME280;63173;49.086;33.418;2022-12-18T06:09:21;101235.34;;;0.68;88.65
74578;BME280;63173;49.086;33.418;2022-12-18T06:11:46;101237.22;;;0.68;88.64
74578;BME280;63173;49.086;33.418;2022-12-18T06:14:12;101252.41;;;0.67;88.17
74578;BME280;63173;49.086;33.418;2022-12-18T06:16:37;101262.91;;;0.62;87.95
74578;BME280;63173;49.086;33.418;2022-12-18T06:19:04;101244.81;;;0.64;87.67
74578;BME280;63173;49.086;33.418;2022-12-18T06:21:30;101269.47;;;0.60;87.70
74578;BME280;63173;49.086;33.418;2022-12-18T06:23:56;101246.75;;;0.49;88.15
74578;BME280;63173;49.086;33.418;2022-12-18T06:26:23;101271.28;;;0.53;87.91
74578;BME280;63173;49.086;33.418;2022-12-18T06:28:49;101261.44;;;0.60;88.11
74578;BME280;63173;49.086;33.418;2022-12-18T06:31:14;101257.50;;;0.56;88.90
74578;BME280;63173;49.086;33.418;2022-12-18T06:33:40;101261.78;;;0.50;88.30
74578;BME280;63173;49.086;33.418;2022-12-18T06:36:10;101278.09;;;0.62;87.96
74578;BME280;63173;49.086;33.418;2022-12-18T06:38:39;101267.63;;;0.60;88.16
74578;BME280;63173;49.086;33.418;2022-12-18T06:41:08;101272.28;;;0.52;88.31
74578;BME280;63173;49.086;33.418;2022-12-18T06:43:34;101272.75;;;0.62;88.85
74578;BME280;63173;49.086;33.418;2022-12-18T06:46:00;101273.75;;;0.61;88.86
74578;BME280;63173;49.086;33.418;2022-12-18T06:48:25;101283.03;;;0.58;88.37
74578;BME280;63173;49.086;33.418;2022-12-18T06:50:51;101292.31;;;0.62;88.74
74578;BME280;63173;49.086;33.418;2022-12-18T06:53:16;101285.72;;;0.65;88.45
74578;BME280;63173;49.086;33.418;2022-12-18T06:55:42;101281.97;;;0.53;89.66
74578;BME280;63173;49.086;33.418;2022-12-18T06:58:08;101295.34;;;0.59;89.97
74578;BME280;63173;49.086;33.418;2022-12-18T07:00:33;101284.28;;;0.62;90.17
74578;BME280;63173;49.086;33.418;2022-12-18T07:02:58;101299.09;;;0.65;90.34
74578;BME280;63173;49.086;33.418;2022-12-18T07:05:24;101303.00;;;0.69;89.32
74578;BME280;63173;49.086;33.418;2022-12-18T07:07:49;101299.69;;;0.60;89.87
74578;BME280;63173;49.086;33.418;2022-12-18T07:10:15;101319.63;;;0.58;90.07
74578;BME280;63173;49.086;33.418;2022-12-18T07:12:40;101308.72;;;0.59;89.33
74578;BME280;63173;49.086;33.418;2022-12-18T07:15:07;101317.78;;;0.58;89.50
74578;BME280;63173;49.086;33.418;2022-12-18T07:17:32;101320.25;;;0.60;89.87
74578;BME280;63173;49.086;33.418;2022-12-18T07:19:58;101324.13;;;0.57;89.92
74578;BME280;63173;49.086;33.418;2022-12-18T07:22:25;101313.06;;;0.60;89.42
74578;BME280;63173;49.086;33.418;2022-12-18T07:24:50;101337.78;;;0.69;88.66
74578;BME280;63173;49.086;33.418;2022-12-18T07:27:16;101335.47;;;0.59;88.76
74578;BME280;63173;49.086;33.418;2022-12-18T07:29:41;101332.00;;;0.65;88.20
74578;BME280;63173;49.086;33.418;2022-12-18T07:32:06;101336.09;;;0.61;88.55
74578;BME280;63173;49.086;33.418;2022-12-18T07:34:32;101349.66;;;0.60;89.04
74578;BME280;63173;49.086;33.418;2022-12-18T07:36:58;101344.69;;;0.57;88.16
74578;BME280;63173;49.086;33.418;2022-12-18T07:39:24;101345.50;;;0.57;88.19
74578;BME280;63173;49.086;33.418;2022-12-18T07:41:49;101355.63;;;0.62;87.49
74578;BME280;63173;49.086;33.418;2022-12-18T07:44:35;101354.78;;;0.55;87.57
74578;BME280;63173;49.086;33.418;2022-12-18T07:47:01;101349.22;;;0.56;87.99
74578;BME280;63173;49.086;33.418;2022-12-18T07:49:27;101357.59;;;0.47;87.83
74578;BME280;63173;49.086;33.418;2022-12-18T07:51:54;101359.78;;;0.64;88.08
74578;BME280;63173;49.086;33.418;2022-12-18T07:54:20;101367.34;;;0.61;88.27
74578;BME280;63173;49.086;33.418;2022-12-18T07:56:45;101375.31;;;0.54;87.92
74578;BME280;63173;49.086;33.418;2022-12-18T07:59:11;101365.06;;;0.58;87.87
74578;BME280;63173;49.086;33.418;2022-12-18T08:01:36;101375.31;;;0.54;88.14
74578;BME280;63173;49.086;33.418;2022-12-18T08:04:02;101372.41;;;0.49;87.20
74578;BME280;63173;49.086;33.418;2022-12-18T08:06:27;101368.09;;;0.48;86.68
74578;BME280;63173;49.086;33.418;2022-12-18T08:08:54;101378.38;;;0.51;86.48
74578;BME280;63173;49.086;33.418;2022-12-18T08:11:20;101380.47;;;0.56;87.31
74578;BME280;63173;49.086;33.418;2022-12-18T08:13:45;101400.78;;;0.50;86.60
74578;BME280;63173;49.086;33.418;2022-12-18T08:16:11;101395.94;;;0.60;85.77
74578;BME280;63173;49.086;33.418;2022-12-18T08:18:37;101385.19;;;0.54;86.10
74578;BME280;63173;49.086;33.418;2022-12-18T08:21:17;101388.09;;;0.59;86.00
74578;BME280;63173;49.086;33.418;2022-12-18T08:23:44;101398.97;;;0.57;85.93
74578;BME280;63173;49.086;33.418;2022-12-18T08:26:13;101400.06;;;0.63;85.93
74578;BME280;63173;49.086;33.418;2022-12-18T08:28:39;101400.44;;;0.60;85.59
74578;BME280;63173;49.086;33.418;2022-12-18T08:31:05;101400.66;;;0.58;85.35
74578;BME280;63173;49.086;33.418;2022-12-18T08:33:31;101412.69;;;0.48;85.62
74578;BME280;63173;49.086;33.418;2022-12-18T08:35:58;101419.81;;;0.68;85.94
74578;BME280;63173;49.086;33.418;2022-12-18T08:38:24;101423.19;;;0.49;83.84
74578;BME280;63173;49.086;33.418;2022-12-18T08:40:49;101419.59;;;0.36;83.57
74578;BME280;63173;49.086;33.418;2022-12-18T08:43:14;101418.38;;;0.38;83.42
74578;BME280;63173;49.086;33.418;2022-12-18T08:45:58;101429.59;;;0.27;82.74
74578;BME280;63173;49.086;33.418;2022-12-18T08:48:24;101435.31;;;0.24;83.01
74578;BME280;63173;49.086;33.418;2022-12-18T08:50:59;101437.59;;;0.27;82.43
74578;BME280;63173;49.086;33.418;2022-12-18T08:53:25;101452.88;;;0.33;82.66
74578;BME280;63173;49.086;33.418;2022-12-18T08:55:51;101433.66;;;0.23;82.66
74578;BME280;63173;49.086;33.418;2022-12-18T08:58:17;101452.75;;;0.20;82.50
74578;BME280;63173;49.086;33.418;2022-12-18T09:00:43;101435.19;;;0.11;82.27
74578;BME280;63173;49.086;33.418;2022-12-18T09:03:15;101425.63;;;0.23;83.13
74578;BME280;63173;49.086;33.418;2022-12-18T09:05:42;101437.78;;;0.26;82.41
74578;BME280;63173;49.086;33.418;2022-12-18T09:08:07;101443.66;;;0.15;82.78
74578;BME280;63173;49.086;33.418;2022-12-18T09:10:33;101442.00;;;0.14;83.66
74578;BME280;63173;49.086;33.418;2022-12-18T09:12:59;101437.59;;;0.27;83.43
74578;BME280;63173;49.086;33.418;2022-12-18T09:15:25;101439.44;;;0.27;81.81
74578;BME280;63173;49.086;33.418;2022-12-18T09:17:50;101445.56;;;0.21;80.87
74578;BME280;63173;49.086;33.418;2022-12-18T09:20:18;101450.59;;;0.09;81.05
74578;BME280;63173;49.086;33.418;2022-12-18T09:22:43;101443.84;;;0.13;81.02
74578;BME280;63173;49.086;33.418;2022-12-18T09:25:09;101455.53;;;0.12;81.46
74578;BME280;63173;49.086;33.418;2022-12-18T09:27:35;101438.13;;;0.16;81.11
74578;BME280;63173;49.086;33.418;2022-12-18T09:30:01;101448.91;;;0.08;81.02
74578;BME280;63173;49.086;33.418;2022-12-18T09:32:26;101431.56;;;0.19;80.42
74578;BME280;63173;49.086;33.418;2022-12-18T09:34:51;101447.47;;;0.06;80.15
74578;BME280;63173;49.086;33.418;2022-12-18T09:37:17;101462.78;;;-0.03;81.22
74578;BME280;63173;49.086;33.418;2022-12-18T09:39:42;101452.84;;;-0.09;81.28
74578;BME280;63173;49.086;33.418;2022-12-18T09:42:21;101457.84;;;-0.06;80.17
74578;BME280;63173;49.086;33.418;2022-12-18T09:44:50;101461.41;;;0.01;81.56
74578;BME280;63173;49.086;33.418;2022-12-18T09:47:37;101495.81;;;-0.25;79.59
74578;BME280;63173;49.086;33.418;2022-12-18T09:50:15;101456.78;;;-0.26;79.95
74578;BME280;63173;49.086;33.418;2022-12-18T09:52:45;101465.38;;;-0.31;79.90
74578;BME280;63173;49.086;33.418;2022-12-18T09:55:35;101457.16;;;-0.29;79.77
74578;BME280;63173;49.086;33.418;2022-12-18T09:58:28;101462.69;;;-0.31;79.03
74578;BME280;63173;49.086;33.418;2022-12-18T10:00:55;101463.97;;;-0.41;79.08
74578;BME280;63173;49.086;33.418;2022-12-18T10:03:22;101467.69;;;-0.42;79.93
74578;BME280;63173;49.086;33.418;2022-12-18T10:06:07;101466.66;;;-0.41;78.68
74578;BME280;63173;49.086;33.418;2022-12-18T10:08:48;101480.84;;;-0.41;79.14
74578;BME280;63173;49.086;33.418;2022-12-18T10:14:01;101485.34;;;-0.41;78.04
74578;BME280;63173;49.086;33.418;2022-12-18T10:16:42;101514.50;;;-0.40;79.07
74578;BME280;63173;49.086;33.418;2022-12-18T10:26:52;101488.88;;;-0.55;79.23
74578;BME280;63173;49.086;33.418;2022-12-18T10:29:18;101501.47;;;-0.64;79.29
74578;BME280;63173;49.086;33.418;2022-12-18T10:31:44;101485.25;;;-0.62;79.37
74578;BME280;63173;49.086;33.418;2022-12-18T10:34:11;101493.47;;;-0.49;80.16
74578;BME280;63173;49.086;33.418;2022-12-18T10:36:40;101511.78;;;-0.61;80.13
74578;BME280;63173;49.086;33.418;2022-12-18T10:39:16;101507.44;;;-0.62;80.15
74578;BME280;63173;49.086;33.418;2022-12-18T10:41:41;101517.28;;;-0.62;79.82
74578;BME280;63173;49.086;33.418;2022-12-18T10:44:23;101507.81;;;-0.79;79.78
74578;BME280;63173;49.086;33.418;2022-12-18T10:46:55;101503.56;;;-0.88;79.23
74578;BME280;63173;49.086;33.418;2022-12-18T10:49:31;101514.06;;;-0.87;80.41
74578;BME280;63173;49.086;33.418;2022-12-18T10:54:55;101518.00;;;-0.98;81.20
74578;BME280;63173;49.086;33.418;2022-12-18T10:59:53;101516.25;;;-0.90;80.99
74578;BME280;63173;49.086;33.418;2022-12-18T11:02:29;101529.06;;;-1.01;81.70
74578;BME280;63173;49.086;33.418;2022-12-18T11:04:59;101522.78;;;-1.08;81.50
74578;BME280;63173;49.086;33.418;2022-12-18T11:07:24;101518.38;;;-1.01;80.64
74578;BME280;63173;49.086;33.418;2022-12-18T11:10:02;101522.88;;;-1.01;80.20
74578;BME280;63173;49.086;33.418;2022-12-18T11:12:28;101526.09;;;-1.06;80.53
74578;BME280;63173;49.086;33.418;2022-12-18T11:14:57;101523.41;;;-1.06;79.82
74578;BME280;63173;49.086;33.418;2022-12-18T11:17:31;101546.31;;;-1.11;80.78
74578;BME280;63173;49.086;33.418;2022-12-18T11:22:58;101534.66;;;-0.96;81.30
74578;BME280;63173;49.086;33.418;2022-12-18T11:25:24;101535.78;;;-0.75;81.39
74578;BME280;63173;49.086;33.418;2022-12-18T11:28:02;101555.28;;;-0.89;80.28
74578;BME280;63173;49.086;33.418;2022-12-18T11:30:33;101550.38;;;-1.01;81.22
74578;BME280;63173;49.086;33.418;2022-12-18T11:33:11;101560.56;;;-1.04;81.11
74578;BME280;63173;49.086;33.418;2022-12-18T11:35:45;101562.16;;;-0.95;78.47
74578;BME280;63173;49.086;33.418;2022-12-18T11:38:27;101587.66;;;-1.15;78.39
74578;BME280;63173;49.086;33.418;2022-12-18T11:41:29;101577.75;;;-1.21;78.23
74578;BME280;63173;49.086;33.418;2022-12-18T11:44:29;101593.31;;;-1.33;76.88
74578;BME280;63173;49.086;33.418;2022-12-18T11:47:15;101577.31;;;-1.33;77.45
74578;BME280;63173;49.086;33.418;2022-12-18T11:49:49;101576.78;;;-1.28;78.17
74578;BME280;63173;49.086;33.418;2022-12-18T11:52:19;101585.78;;;-1.29;77.44
74578;BME280;63173;49.086;33.418;2022-12-18T11:54:55;101588.66;;;-1.31;78.08
74578;BME280;63173;49.086;33.418;2022-12-18T12:00:15;101584.41;;;-1.03;77.97
74578;BME280;63173;49.086;33.418;2022-12-18T12:05:42;101602.72;;;-1.22;76.73
74578;BME280;63173;49.086;33.418;2022-12-18T12:08:41;101607.69;;;-1.42;78.05
74578;BME280;63173;49.086;33.418;2022-12-18T12:13:55;101618.53;;;-0.61;76.81
74578;BME280;63173;49.086;33.418;2022-12-18T12:21:44;101628.06;;;-1.49;75.99
74578;BME280;63173;49.086;33.418;2022-12-18T12:35:04;101651.97;;;-1.63;75.85
74578;BME280;63173;49.086;33.418;2022-12-18T12:40:34;101654.94;;;-1.58;75.73
74578;BME280;63173;49.086;33.418;2022-12-18T12:43:20;101694.88;;;-1.58;76.21
74578;BME280;63173;49.086;33.418;2022-12-18T12:46:07;101668.94;;;-1.64;75.24
74578;BME280;63173;49.086;33.418;2022-12-18T12:48:44;101678.19;;;-1.83;75.76
74578;BME280;63173;49.086;33.418;2022-12-18T12:51:20;101666.34;;;-1.72;74.67
74578;BME280;63173;49.086;33.418;2022-12-18T12:53:47;101671.94;;;-1.59;74.82
74578;BME280;63173;49.086;33.418;2022-12-18T12:56:15;101685.78;;;-1.72;74.35
74578;BME280;63173;49.086;33.418;2022-12-18T13:09:07;101697.28;;;-1.10;75.28
74578;BME280;63173;49.086;33.418;2022-12-18T13:11:38;101696.91;;;-0.84;75.12
74578;BME280;63173;49.086;33.418;2022-12-18T13:14:34;101710.91;;;-1.66;75.02
74578;BME280;63173;49.086;33.418;2022-12-18T13:19:49;101712.16;;;-1.85;75.13
74578;BME280;63173;49.086;33.418;2022-12-18T13:22:23;101722.00;;;-1.94;74.49
74578;BME280;63173;49.086;33.418;2022-12-18T13:24:50;101709.66;;;-1.86;74.90
74578;BME280;63173;49.086;33.418;2022-12-18T13:38:36;101727.78;;;-1.82;74.79
74578;BME280;63173;49.086;33.418;2022-12-18T13:41:22;101740.28;;;-1.82;74.54
74578;BME280;63173;49.086;33.418;2022-12-18T13:46:54;101748.28;;;-1.91;74.17
74578;BME280;63173;49.086;33.418;2022-12-18T13:49:26;101730.13;;;-1.87;74.74
74578;BME280;63173;49.086;33.418;2022-12-18T13:51:56;101753.44;;;-1.89;74.67
74578;BME280;63173;49.086;33.418;2022-12-18T13:54:41;101740.13;;;-1.89;74.99
74578;BME280;63173;49.086;33.418;2022-12-18T13:57:27;101755.78;;;-1.86;74.60
74578;BME280;63173;49.086;33.418;2022-12-18T13:59:53;101747.41;;;-1.75;74.36
74578;BME280;63173;49.086;33.418;2022-12-18T14:02:24;101757.09;;;-1.90;74.91
74578;BME280;63173;49.086;33.418;2022-12-18T14:04:51;101758.75;;;-1.89;75.43
74578;BME280;63173;49.086;33.418;2022-12-18T14:07:19;101767.09;;;-1.84;74.84
74578;BME280;63173;49.086;33.418;2022-12-18T14:09:46;101765.28;;;-1.92;75.66
74578;BME280;63173;49.086;33.418;2022-12-18T14:12:20;101776.41;;;-1.88;75.16
74578;BME280;63173;49.086;33.418;2022-12-18T14:15:10;101778.75;;;-1.93;76.47
74578;BME280;63173;49.086;33.418;2022-12-18T14:17:42;101786.25;;;-2.05;77.14
74578;BME280;63173;49.086;33.418;2022-12-18T14:20:14;101793.72;;;-2.08;75.72
74578;BME280;63173;49.086;33.418;2022-12-18T14:22:43;101805.56;;;-2.19;76.78
74578;BME280;63173;49.086;33.418;2022-12-18T14:25:14;101809.38;;;-2.21;77.00
74578;BME280;63173;49.086;33.418;2022-12-18T14:27:52;101840.34;;;-2.20;75.75
74578;BME280;63173;49.086;33.418;2022-12-18T14:33:06;101832.84;;;-2.25;76.20
74578;BME280;63173;49.086;33.418;2022-12-18T14:40:46;101826.38;;;-2.22;73.44
74578;BME280;63173;49.086;33.418;2022-12-18T14:43:12;101849.16;;;-2.28;73.41
74578;BME280;63173;49.086;33.418;2022-12-18T14:45:39;101838.66;;;-2.37;73.26
74578;BME280;63173;49.086;33.418;2022-12-18T14:48:15;101842.97;;;-2.36;73.20
74578;BME280;63173;49.086;33.418;2022-12-18T14:50:41;101850.66;;;-2.33;73.64
74578;BME280;63173;49.086;33.418;2022-12-18T14:53:22;101842.16;;;-2.29;74.28
74578;BME280;63173;49.086;33.418;2022-12-18T14:55:48;101844.81;;;-2.29;74.17